Haifa, Israel

1:36 PM IST on February 08, 2016 (GMT +0200)
Haifa | | Change Station
CLOSE
Current Station
Personal Weather Station
Location: Haifa, -
Elevation: 676 ft
Nearby Weather Stations

Elev 676 ft 32.81 °N, 34.99 °E | Updated 57 seconds ago

Scattered Clouds
Scattered Clouds
59.9 °F
Feels Like 59.9 °F
N
10.0
Wind Variable Wind from NNW
Gusts 11.0 mph

Today
High -- | Low -- °F
--% Chance of Precip.
Yesterday
High -- | Low -- °F
Precip. -- in
Pressure 30.18 in
Visibility 6.2 miles
Clouds Few 3500 ft
Scattered Clouds 4000 ft
Dew Point 46 °F
Humidity 60%
Rainfall 0.02 in
Snow Depth Not available.
6:30 AM 5:18 PM
Waning Crescent, 0% visible
METAR LLHA 081050Z 25006KT 210V300 9999 FEW035 SCT040 16/08 Q1022 RMK BKN070
Pressure 30.18 in
Visibility 6.2 miles
Clouds Few 3500 ft
Scattered Clouds 4000 ft
Dew Point 46 °F
Humidity 60%
Rainfall 0.02 in
Snow Depth Not available.
6:30 AM 5:18 PM
Waning Crescent, 0% visible
METAR LLHA 081050Z 25006KT 210V300 9999 FEW035 SCT040 16/08 Q1022 RMK BKN070

10-Day Weather Forecast

No radar image for this location.
×

Almanac

Astronomy

Feb. 08, 2016 Rise Set
Actual Time
Civil Twilight
Nautical Twilight
Astronomical Twilight
Moon
Length of Visible Light
Length of Day
Tomorrow will be .
, % of the Moon is Illuminated

Today's Extremes

Country Highs Country Lows

Community

WunderPhotos

Upload Photos

1,891,420 photos uploaded!

WunderBlog® & News

Nearby

Air Quality

  Air Quality AQ Index Pollutant
Not available.

Snow Depth

Station Depth Elevation

Earthquake Activity

City Distance Mag. Time & Date
Minimum magnitude displayed is 2.5.

Coastal Water Temperatures

Place Temperature

Stations

Nearby Weather Stations

Station Location Temp. Windchill Dew Point Humidity Wind Precip. Elev Updated Type